createdAt,value
2022-10-19T06:34:30.305Z,537.22
2022-10-19T06:36:56.948Z,421.02
2022-10-19T06:39:23.540Z,394.05
2022-10-19T06:41:50.521Z,396.45
2022-10-19T06:44:17.219Z,457.63
2022-10-19T06:46:43.890Z,427.85
2022-10-19T06:49:14.338Z,392.27
2022-10-19T06:51:40.998Z,347.70
2022-10-19T06:54:07.992Z,313.38
2022-10-19T06:56:35.084Z,300.00
2022-10-19T06:59:01.713Z,314.15
2022-10-19T07:01:28.442Z,338.08
2022-10-19T07:03:55.607Z,319.85
2022-10-19T07:06:22.577Z,341.08
2022-10-19T07:08:52.165Z,331.40
2022-10-19T07:11:22.735Z,325.25
2022-10-19T07:13:52.689Z,321.63
2022-10-19T07:16:21.788Z,329.25
2022-10-19T07:18:51.771Z,281.50
2022-10-19T07:21:21.529Z,321.52
2022-10-19T07:23:50.663Z,337.88
2022-10-19T07:26:26.485Z,342.25
2022-10-19T07:28:55.231Z,308.33
2022-10-19T07:31:26.542Z,334.27
2022-10-19T07:33:58.264Z,323.75
2022-10-19T07:36:25.533Z,326.45
2022-10-19T07:38:52.890Z,372.80
2022-10-19T07:41:23.494Z,345.40
2022-10-19T07:43:52.779Z,379.17
2022-10-19T07:46:27.934Z,386.42
2022-10-19T07:48:55.480Z,378.00
2022-10-19T07:51:23.269Z,360.00
2022-10-19T07:53:50.280Z,351.10
2022-10-19T07:56:25.351Z,366.23
2022-10-19T07:58:54.190Z,330.50
2022-10-19T08:01:23.699Z,328.20
2022-10-19T08:06:40.282Z,294.02
2022-10-19T08:09:08.024Z,276.85
2022-10-19T08:11:36.411Z,259.00
2022-10-19T08:14:03.795Z,270.67
2022-10-19T08:16:41.518Z,293.85
2022-10-19T08:19:10.681Z,339.25
2022-10-19T08:21:39.251Z,442.95
2022-10-19T08:24:06.849Z,605.33
2022-10-19T08:26:36.713Z,681.15
2022-10-19T08:29:08.650Z,730.05
2022-10-19T08:31:35.683Z,707.58
2022-10-19T08:34:02.784Z,708.10
2022-10-19T08:36:31.424Z,745.45
2022-10-19T08:38:58.672Z,670.83
2022-10-19T08:41:40.790Z,677.95
2022-10-19T08:44:25.933Z,673.72
2022-10-19T08:47:19.751Z,597.65
2022-10-19T08:49:49.393Z,651.03
2022-10-19T08:52:30.752Z,631.95
2022-10-19T08:55:18.144Z,605.00
2022-10-19T08:57:58.313Z,618.65
2022-10-19T09:00:43.508Z,527.88
2022-10-19T09:03:23.064Z,565.22
2022-10-19T09:06:28.833Z,581.78
2022-10-19T09:08:57.255Z,613.10
2022-10-19T09:11:38.822Z,532.70
2022-10-19T09:14:23.368Z,514.13
2022-10-19T09:19:26.344Z,569.28
2022-10-19T09:22:20.124Z,515.40
2022-10-19T09:24:53.057Z,583.60
2022-10-19T09:27:25.924Z,542.53
2022-10-19T09:29:57.761Z,644.83
2022-10-19T09:32:37.203Z,626.40
2022-10-19T09:35:18.512Z,566.08
2022-10-19T09:37:48.636Z,613.50
2022-10-19T09:40:20.622Z,593.30
2022-10-19T09:42:51.180Z,573.70
2022-10-19T09:45:34.064Z,605.30
2022-10-19T09:48:07.181Z,566.20
2022-10-19T09:50:44.087Z,597.53
2022-10-19T09:53:19.667Z,615.60
2022-10-19T09:55:53.600Z,606.88
2022-10-19T09:58:21.124Z,590.05
2022-10-19T10:00:59.567Z,585.80
2022-10-19T10:03:39.386Z,561.92
2022-10-19T10:06:08.483Z,444.60
2022-10-19T10:08:39.141Z,588.75
2022-10-19T10:11:13.231Z,569.78
2022-10-19T10:13:42.802Z,569.10
2022-10-19T10:16:16.679Z,572.92
2022-10-19T10:19:06.088Z,537.53
2022-10-19T10:21:36.564Z,520.20
2022-10-19T10:24:12.037Z,569.30
2022-10-19T10:26:45.470Z,550.75
2022-10-19T10:29:23.299Z,450.63
2022-10-19T10:31:55.139Z,528.80
2022-10-19T10:34:59.959Z,464.30
2022-10-19T10:37:44.834Z,492.33
2022-10-19T10:40:25.153Z,486.97
2022-10-19T10:42:53.981Z,470.83
2022-10-19T10:45:26.715Z,489.05
2022-10-19T10:47:54.081Z,449.92
2022-10-19T10:50:27.862Z,374.02
2022-10-19T10:53:07.997Z,451.63
2022-10-19T10:55:35.143Z,441.05
2022-10-19T10:58:21.242Z,450.98
2022-10-19T11:00:50.461Z,449.35
2022-10-19T11:03:38.015Z,458.00
2022-10-19T11:06:05.009Z,375.88
2022-10-19T11:08:43.762Z,433.00
2022-10-19T11:11:21.734Z,469.90
2022-10-19T11:14:01.238Z,379.55
2022-10-19T11:16:41.847Z,440.60
2022-10-19T11:19:17.826Z,413.83
2022-10-19T11:22:24.960Z,421.17
2022-10-19T11:25:34.054Z,381.27
2022-10-19T11:28:25.407Z,315.73
2022-10-19T11:30:57.876Z,357.55
2022-10-19T11:36:41.255Z,340.17
2022-10-19T11:39:11.116Z,316.15
2022-10-19T11:41:52.818Z,362.88
2022-10-19T11:44:37.200Z,343.83
2022-10-19T11:47:31.676Z,348.00
2022-10-19T11:50:27.170Z,312.10
2022-10-19T11:53:02.509Z,246.90
2022-10-19T11:55:41.008Z,280.20
2022-10-19T11:58:38.056Z,241.80
2022-10-19T12:01:25.067Z,224.32
2022-10-19T12:04:06.866Z,210.90
2022-10-19T12:06:48.174Z,196.32
2022-10-19T12:09:43.114Z,203.18
2022-10-19T12:12:28.091Z,164.40
2022-10-19T12:15:01.752Z,170.65
2022-10-19T12:17:33.208Z,139.82
2022-10-19T12:20:06.554Z,148.88
2022-10-19T12:22:37.417Z,142.55
2022-10-19T12:25:04.971Z,144.48
2022-10-19T12:27:37.764Z,151.00
2022-10-19T12:30:08.657Z,156.07
2022-10-19T12:33:00.847Z,131.40
2022-10-19T12:35:49.418Z,140.23
2022-10-19T12:38:25.145Z,214.13
2022-10-19T12:41:00.394Z,140.80
2022-10-19T12:43:43.880Z,138.05
2022-10-19T12:46:40.298Z,135.63
2022-10-19T12:49:45.284Z,189.63
2022-10-19T12:52:14.158Z,178.65
2022-10-19T12:54:43.510Z,151.30
2022-10-19T12:57:30.526Z,100.13
2022-10-19T13:00:05.393Z,168.20
2022-10-19T13:02:37.134Z,152.52
2022-10-19T13:05:04.860Z,160.60
2022-10-19T13:07:35.399Z,124.93
2022-10-19T13:10:06.916Z,184.80
2022-10-19T13:12:45.222Z,208.90
2022-10-19T13:15:36.380Z,183.25
2022-10-19T13:18:14.358Z,204.77
2022-10-19T13:23:13.234Z,185.82
2022-10-19T13:25:42.125Z,171.10
2022-10-19T13:28:11.645Z,189.85
2022-10-19T13:30:38.411Z,231.70
2022-10-19T13:33:32.548Z,168.82
2022-10-19T13:35:59.599Z,203.75
2022-10-19T13:38:27.720Z,190.73
2022-10-19T13:40:57.059Z,182.20
2022-10-19T13:43:30.898Z,189.68
2022-10-19T13:46:18.811Z,189.95
2022-10-19T13:49:22.818Z,190.90
2022-10-19T13:51:55.261Z,201.15
2022-10-19T13:54:49.629Z,198.77
2022-10-19T13:57:37.977Z,218.88
2022-10-19T14:00:16.653Z,217.93
2022-10-19T14:03:11.846Z,222.13
2022-10-19T14:06:02.079Z,233.32
2022-10-19T14:08:53.345Z,241.30
2022-10-19T14:11:35.456Z,229.95
2022-10-19T14:14:10.830Z,240.82
2022-10-19T14:17:05.265Z,255.70
2022-10-19T14:19:33.476Z,271.13
2022-10-19T14:22:17.130Z,236.68
2022-10-19T14:24:43.754Z,240.50
2022-10-19T14:27:21.327Z,216.20
2022-10-19T14:29:51.043Z,230.32
2022-10-19T14:32:21.291Z,234.55
2022-10-19T14:34:49.028Z,232.70
2022-10-19T14:37:24.305Z,224.60
2022-10-19T14:40:08.161Z,205.15
2022-10-19T14:42:46.091Z,236.43
2022-10-19T14:45:22.271Z,208.68
2022-10-19T14:47:57.389Z,232.50
2022-10-19T14:50:54.449Z,247.05
2022-10-19T14:53:29.157Z,225.75
2022-10-19T14:55:59.732Z,207.55
2022-10-19T14:58:32.032Z,223.48
2022-10-19T15:00:58.843Z,248.70
2022-10-19T15:03:30.563Z,279.52
2022-10-19T15:06:04.316Z,294.90
2022-10-19T15:08:42.696Z,317.23
2022-10-19T15:11:27.155Z,302.77
2022-10-19T15:14:03.932Z,307.95
2022-10-19T15:16:49.289Z,331.80
2022-10-19T15:19:21.812Z,303.60
2022-10-19T15:22:26.965Z,318.20
2022-10-19T15:24:56.085Z,332.85
2022-10-19T15:27:39.455Z,309.27
2022-10-19T15:30:24.983Z,301.08
2022-10-19T15:33:13.317Z,303.27
2022-10-19T15:35:44.129Z,312.23
2022-10-19T15:38:21.196Z,288.98
2022-10-19T15:40:48.580Z,236.00
2022-10-19T15:43:30.530Z,252.63
2022-10-19T15:46:03.638Z,256.83
2022-10-19T15:48:42.787Z,273.33
2022-10-19T15:51:33.884Z,274.10
2022-10-19T15:54:06.667Z,307.60
2022-10-19T15:56:37.174Z,288.77
2022-10-19T15:59:10.682Z,274.30
2022-10-19T16:01:37.473Z,268.92
2022-10-19T16:04:04.360Z,278.45
2022-10-19T16:06:34.032Z,254.80
2022-10-19T16:09:01.233Z,293.02
2022-10-19T16:11:29.977Z,289.58
2022-10-19T16:13:56.625Z,268.65
2022-10-19T16:16:29.580Z,280.55
2022-10-19T16:18:56.748Z,305.92
2022-10-19T16:21:27.138Z,295.30
2022-10-19T16:23:54.095Z,239.45
2022-10-19T16:26:21.585Z,259.17
2022-10-19T16:28:48.869Z,240.15
2022-10-19T16:31:16.695Z,254.32
2022-10-19T16:33:43.437Z,251.32
2022-10-19T16:36:10.856Z,258.50
2022-10-19T16:38:37.536Z,236.45
2022-10-19T16:41:10.302Z,237.88
2022-10-19T16:43:37.359Z,239.65
2022-10-19T16:46:04.987Z,238.27
2022-10-19T16:48:32.073Z,252.43
2022-10-19T16:51:08.002Z,235.75
2022-10-19T16:53:35.496Z,243.85
2022-10-19T16:56:08.094Z,264.83
2022-10-19T16:58:37.158Z,271.77
2022-10-19T17:01:11.603Z,282.77
2022-10-19T17:03:38.415Z,299.23
2022-10-19T17:06:06.569Z,324.50
2022-10-19T17:09:02.711Z,339.67
2022-10-19T17:11:27.537Z,326.85
2022-10-19T17:13:57.427Z,366.27
2022-10-19T17:16:30.397Z,367.95
2022-10-19T17:18:58.777Z,354.63
2022-10-19T17:21:29.459Z,387.95
2022-10-19T17:24:02.320Z,411.83
2022-10-19T17:26:39.881Z,375.08
2022-10-19T17:29:09.872Z,408.42
2022-10-19T17:31:39.019Z,381.20
2022-10-19T17:34:08.594Z,355.80
2022-10-19T17:39:11.883Z,429.27
2022-10-19T17:41:38.580Z,301.63
2022-10-19T17:44:15.534Z,343.70
2022-10-19T17:46:43.166Z,421.90
2022-10-19T17:49:10.510Z,453.65
2022-10-19T17:51:40.254Z,516.75
2022-10-19T17:54:13.164Z,498.38
2022-10-19T17:56:46.090Z,423.15
2022-10-19T17:59:13.969Z,457.83
2022-10-19T18:01:44.602Z,427.48
2022-10-19T18:04:12.653Z,418.77
2022-10-19T18:06:42.605Z,388.08
2022-10-19T18:09:09.710Z,446.30
2022-10-19T18:11:45.195Z,420.88
2022-10-19T18:14:25.657Z,435.10
2022-10-19T18:16:55.154Z,409.23
2022-10-19T18:19:25.718Z,365.52
2022-10-19T18:21:56.848Z,408.80
2022-10-19T18:24:27.719Z,392.75
2022-10-19T18:26:56.778Z,328.25
2022-10-19T18:29:27.270Z,356.05
2022-10-19T18:32:01.453Z,367.48
2022-10-19T18:34:28.748Z,353.92
2022-10-19T18:37:01.555Z,335.38
2022-10-19T18:39:41.571Z,341.90
2022-10-19T18:42:12.860Z,304.38
2022-10-19T18:44:42.712Z,303.30
2022-10-19T18:47:12.556Z,301.95
2022-10-19T18:49:42.149Z,329.30
2022-10-19T18:52:14.095Z,339.15
2022-10-19T18:54:40.736Z,351.83
2022-10-19T18:57:14.094Z,337.63
2022-10-19T18:59:43.326Z,312.57
2022-10-19T19:02:22.403Z,279.60
2022-10-19T19:04:55.836Z,323.50
2022-10-19T19:07:25.709Z,299.38
2022-10-19T19:09:55.655Z,254.65
2022-10-19T19:12:25.847Z,338.08
2022-10-19T19:14:55.968Z,323.33
2022-10-19T19:17:25.681Z,357.25
2022-10-19T19:19:55.684Z,262.67
2022-10-19T19:22:26.233Z,320.60
2022-10-19T19:24:57.500Z,280.05
2022-10-19T19:27:31.414Z,292.45
2022-10-19T19:30:00.755Z,360.85
2022-10-19T19:32:31.047Z,353.23
2022-10-19T19:34:58.382Z,323.67
2022-10-19T19:37:28.151Z,345.77
2022-10-19T19:39:59.327Z,297.85
2022-10-19T19:42:29.109Z,270.88
2022-10-19T19:44:59.032Z,280.15
2022-10-19T19:47:32.341Z,267.02
2022-10-19T19:50:01.293Z,286.15
2022-10-19T19:52:30.769Z,317.60
2022-10-19T19:57:34.079Z,229.60
2022-10-19T20:00:04.432Z,262.08
2022-10-19T20:02:39.567Z,271.45
2022-10-19T20:05:06.669Z,252.40
2022-10-19T20:07:33.512Z,340.60
2022-10-19T20:10:03.832Z,284.80
2022-10-19T20:12:33.556Z,269.55
2022-10-19T20:15:05.049Z,398.33
2022-10-19T20:17:36.216Z,240.77
2022-10-19T20:20:08.556Z,264.00
2022-10-19T20:22:37.004Z,235.90
2022-10-19T20:25:06.850Z,362.95
2022-10-19T20:27:37.958Z,420.58
2022-10-19T20:30:05.590Z,329.60
2022-10-19T20:32:33.039Z,326.42
2022-10-19T20:34:59.987Z,270.70
2022-10-19T20:37:26.796Z,420.60
2022-10-19T20:39:53.455Z,359.98
2022-10-19T20:42:20.361Z,361.75
2022-10-19T20:44:47.260Z,340.25
2022-10-19T20:47:14.183Z,371.77
2022-10-19T20:49:41.095Z,369.38
2022-10-19T20:52:07.771Z,344.50
2022-10-19T20:54:35.775Z,374.80
2022-10-19T20:57:03.233Z,275.00
2022-10-19T20:59:34.478Z,401.13
2022-10-19T21:02:01.249Z,250.52
2022-10-19T21:04:28.541Z,244.90
2022-10-19T21:06:55.427Z,225.48
2022-10-19T21:09:23.712Z,266.65
2022-10-19T21:11:51.962Z,282.45
2022-10-19T21:14:25.270Z,335.40
2022-10-19T21:16:56.870Z,301.67
2022-10-19T21:19:25.631Z,358.02
2022-10-19T21:21:55.512Z,365.55
2022-10-19T21:24:24.819Z,366.10
2022-10-19T21:29:19.265Z,372.58
2022-10-19T21:31:49.175Z,441.75
2022-10-19T21:34:22.450Z,362.92
2022-10-19T21:36:49.731Z,380.92
2022-10-19T21:39:17.691Z,411.73
2022-10-19T21:41:44.480Z,476.00
2022-10-19T21:44:11.538Z,472.60
2022-10-19T21:46:38.295Z,454.95
2022-10-19T21:49:05.106Z,426.35
2022-10-19T21:51:54.118Z,443.23
2022-10-19T21:54:24.993Z,377.67
2022-10-19T21:56:53.402Z,432.25
2022-10-19T21:59:20.332Z,358.42
2022-10-19T22:01:47.233Z,409.23
2022-10-19T22:04:16.281Z,462.65
2022-10-19T22:06:43.692Z,333.02
2022-10-19T22:09:13.646Z,268.38
2022-10-19T22:11:40.314Z,381.02
2022-10-19T22:14:07.041Z,369.27
2022-10-19T22:16:37.040Z,346.08
2022-10-19T22:19:05.358Z,390.20
2022-10-19T22:21:35.693Z,429.50
2022-10-19T22:24:06.691Z,389.75
2022-10-19T22:26:36.493Z,309.52
2022-10-19T22:29:04.651Z,448.42
2022-10-19T22:31:32.293Z,446.30
2022-10-19T22:34:01.486Z,446.17
2022-10-19T22:36:28.372Z,478.83
2022-10-19T22:38:55.249Z,368.48
2022-10-19T22:41:21.966Z,395.65
2022-10-19T22:43:48.562Z,425.88
2022-10-19T22:46:15.215Z,449.13
2022-10-19T22:48:42.066Z,436.88
2022-10-19T22:51:08.729Z,371.80
2022-10-19T22:53:35.546Z,298.63
2022-10-19T22:56:02.587Z,382.27
2022-10-19T22:58:29.205Z,349.50
2022-10-19T23:00:59.826Z,338.83
2022-10-19T23:03:26.493Z,310.20
2022-10-19T23:05:53.142Z,221.20
2022-10-19T23:08:19.771Z,293.17
2022-10-19T23:10:46.912Z,250.55
2022-10-19T23:13:13.612Z,244.30
2022-10-19T23:15:43.163Z,211.32
2022-10-19T23:18:11.150Z,169.00
2022-10-19T23:20:37.914Z,198.85
2022-10-19T23:23:04.841Z,129.80
2022-10-19T23:25:33.911Z,159.32
2022-10-19T23:28:00.546Z,134.77
2022-10-19T23:30:27.293Z,141.75
2022-10-19T23:32:54.246Z,143.70
2022-10-19T23:35:20.798Z,124.45
2022-10-19T23:37:47.957Z,121.68
2022-10-19T23:40:14.851Z,151.80
2022-10-19T23:42:41.537Z,157.18
2022-10-19T23:45:08.608Z,155.35
2022-10-19T23:47:35.445Z,156.88
2022-10-19T23:50:02.327Z,133.35
2022-10-19T23:52:29.144Z,151.82
2022-10-19T23:54:55.915Z,134.80
2022-10-19T23:57:22.477Z,170.23
2022-10-19T23:59:49.126Z,136.18
